Time;durP1;ratioP1;P1;durP2;ratioP2;P2;SDS_P1;SDS_P2;PMS_P1;PMS_P2;Temp;Humidity;BMP_temperature;BMP_pressure;BME280_temperature;BME280_humidity;BME280_pressure;Samples;Min_cycle;Max_cycle;Signal;HPM_P1;HPM_P2
2023/10/13 00:00:36;;;;;;;;;;;;;;;16.67;nan;101481.88;4979294;28;19918;-94
2023/10/13 00:03:02;;;;;;;;;;;;;;;16.72;nan;101473.78;4983533;28;20526;-93
2023/10/13 00:05:30;;;;;;;;;;;;;;;16.76;nan;101474.03;4979499;28;19922;-94
2023/10/13 00:07:56;;;;;;;;;;;;;;;16.79;nan;101478.91;4981115;28;19926;-92
2023/10/13 00:10:22;;;;;;;;;;;;;;;16.82;nan;101478.34;4982605;28;19929;-92
2023/10/13 00:12:49;;;;;;;;;;;;;;;16.85;nan;101475.09;4980430;28;19918;-92
2023/10/13 00:15:18;;;;;;;;;;;;;;;16.91;nan;101465.91;4980930;28;19930;-93
2023/10/13 00:17:43;;;;;;;;;;;;;;;16.97;nan;101467.50;4978530;28;20454;-92
2023/10/13 00:20:28;;;;;;;;;;;;;;;17.01;nan;101455.03;4975857;28;19918;-93
2023/10/13 00:22:56;;;;;;;;;;;;;;;17.03;nan;101458.28;4982594;28;19922;-93
2023/10/13 00:25:26;;;;;;;;;;;;;;;17.07;nan;101453.16;4980114;28;19929;-94
2023/10/13 00:27:52;;;;;;;;;;;;;;;17.08;nan;101444.75;4976305;28;19918;-93
2023/10/13 00:32:55;;;;;;;;;;;;;;;17.13;nan;101439.31;4980746;28;19918;-91
2023/10/13 00:35:35;;;;;;;;;;;;;;;17.15;nan;101439.03;4981546;28;21133;-91
2023/10/13 00:38:06;;;;;;;;;;;;;;;17.15;nan;101439.84;4982647;28;20243;-93
2023/10/13 00:43:32;;;;;;;;;;;;;;;17.20;nan;101439.84;4980848;28;19976;-92
2023/10/13 00:45:55;;;;;;;;;;;;;;;17.24;nan;101431.19;4979190;28;19977;-92
2023/10/13 00:48:34;;;;;;;;;;;;;;;17.29;nan;101437.38;4982612;28;19921;-91
2023/10/13 00:51:06;;;;;;;;;;;;;;;17.35;nan;101428.16;4983035;28;20272;-92
2023/10/13 00:53:37;;;;;;;;;;;;;;;17.38;nan;101432.19;4979721;28;19922;-92
2023/10/13 00:56:07;;;;;;;;;;;;;;;17.41;nan;101437.06;4981212;28;19968;-93
2023/10/13 00:58:38;;;;;;;;;;;;;;;17.45;nan;101438.16;4981820;28;19922;-92
2023/10/13 01:01:22;;;;;;;;;;;;;;;17.51;nan;101447.88;4980374;28;20393;-91
2023/10/13 01:03:48;;;;;;;;;;;;;;;17.52;nan;101449.47;4980276;28;19918;-92
2023/10/13 01:06:17;;;;;;;;;;;;;;;17.56;nan;101447.03;4977760;28;19961;-92
2023/10/13 01:08:50;;;;;;;;;;;;;;;17.59;nan;101444.56;4977779;28;20298;-93
2023/10/13 01:11:16;;;;;;;;;;;;;;;17.61;nan;101442.41;4979633;28;19992;-93
2023/10/13 01:13:41;;;;;;;;;;;;;;;17.66;nan;101439.66;4982371;28;19917;-93
2023/10/13 01:16:07;;;;;;;;;;;;;;;17.66;nan;101441.56;4983707;28;20103;-92
2023/10/13 01:18:39;;;;;;;;;;;;;;;17.67;nan;101452.13;4979952;28;20360;-94
2023/10/13 01:21:06;;;;;;;;;;;;;;;17.70;nan;101448.09;4978277;28;19960;-92
2023/10/13 01:23:37;;;;;;;;;;;;;;;17.72;nan;101437.78;4978320;28;20094;-94
2023/10/13 01:26:05;;;;;;;;;;;;;;;17.76;nan;101430.69;4979902;28;19944;-92
2023/10/13 01:28:30;;;;;;;;;;;;;;;17.78;nan;101434.78;4984026;28;19917;-92
2023/10/13 01:30:55;;;;;;;;;;;;;;;17.83;nan;101420.38;4980795;28;19984;-93
2023/10/13 01:33:28;;;;;;;;;;;;;;;17.89;nan;101423.84;4982118;28;19928;-92
2023/10/13 01:35:55;;;;;;;;;;;;;;;17.94;nan;101429.25;4980361;28;19925;-94
2023/10/13 01:38:20;;;;;;;;;;;;;;;17.97;nan;101432.22;4978752;28;19926;-93
2023/10/13 01:40:51;;;;;;;;;;;;;;;18.01;nan;101430.56;4976826;28;19979;-93
2023/10/13 01:43:17;;;;;;;;;;;;;;;18.05;nan;101426.19;4977474;28;19957;-93
2023/10/13 01:45:47;;;;;;;;;;;;;;;18.07;nan;101432.13;4973580;28;20305;-93
2023/10/13 01:48:16;;;;;;;;;;;;;;;18.10;nan;101430.75;4973873;28;19992;-92
2023/10/13 01:50:41;;;;;;;;;;;;;;;18.15;nan;101436.16;4971104;28;19926;-92
2023/10/13 01:53:13;;;;;;;;;;;;;;;18.18;nan;101432.88;4974363;28;19929;-93
2023/10/13 01:55:42;;;;;;;;;;;;;;;18.21;nan;101424.19;4973089;28;19918;-93
2023/10/13 01:58:14;;;;;;;;;;;;;;;18.25;nan;101422.53;4972320;28;20353;-93
2023/10/13 02:00:41;;;;;;;;;;;;;;;18.27;nan;101422.22;4971478;28;19937;-94
2023/10/13 02:03:14;;;;;;;;;;;;;;;18.27;nan;101431.19;4972645;28;20092;-92
2023/10/13 02:05:40;;;;;;;;;;;;;;;18.28;nan;101429.28;4973742;28;19925;-92
2023/10/13 02:08:06;;;;;;;;;;;;;;;18.32;nan;101431.16;4975987;28;20349;-93
2023/10/13 02:10:31;;;;;;;;;;;;;;;18.36;nan;101425.97;4974341;28;20053;-92
2023/10/13 02:12:56;;;;;;;;;;;;;;;18.38;nan;101429.22;4973004;28;20084;-92
2023/10/13 02:15:26;;;;;;;;;;;;;;;18.42;nan;101425.63;4972823;28;19929;-92
2023/10/13 02:17:51;;;;;;;;;;;;;;;18.48;nan;101433.72;4971896;28;20016;-93
2023/10/13 02:20:18;;;;;;;;;;;;;;;18.49;nan;101438.91;4976227;28;20056;-92
2023/10/13 02:22:49;;;;;;;;;;;;;;;18.49;nan;101438.06;4974161;28;20406;-92
2023/10/13 02:25:17;;;;;;;;;;;;;;;18.50;nan;101431.56;4973634;28;19938;-93
2023/10/13 02:27:43;;;;;;;;;;;;;;;18.54;nan;101416.34;4971846;28;19941;-92
2023/10/13 02:30:14;;;;;;;;;;;;;;;18.57;nan;101421.19;4971524;28;19926;-93
2023/10/13 02:32:43;;;;;;;;;;;;;;;18.59;nan;101419.81;4970247;28;19922;-93
2023/10/13 02:35:15;;;;;;;;;;;;;;;18.61;nan;101427.66;4970464;28;19997;-93
2023/10/13 02:37:43;;;;;;;;;;;;;;;18.64;nan;101427.09;4970535;28;19918;-92
2023/10/13 02:40:09;;;;;;;;;;;;;;;18.68;nan;101423.56;4971185;28;19933;-92
2023/10/13 02:42:36;;;;;;;;;;;;;;;18.75;nan;101422.41;4977074;28;19922;-92
2023/10/13 02:45:03;;;;;;;;;;;;;;;18.79;nan;101413.41;4972879;28;19922;-92
2023/10/13 02:47:31;;;;;;;;;;;;;;;18.82;nan;101412.81;4977461;28;19960;-92
2023/10/13 02:50:00;;;;;;;;;;;;;;;18.83;nan;101414.44;4975753;28;19927;-91
2023/10/13 02:52:26;;;;;;;;;;;;;;;18.83;nan;101405.47;4969871;28;19925;-93
2023/10/13 02:54:52;;;;;;;;;;;;;;;18.81;nan;101400.34;4971828;28;19925;-92
2023/10/13 02:57:17;;;;;;;;;;;;;;;18.82;nan;101407.38;4973040;28;19918;-92
2023/10/13 02:59:58;;;;;;;;;;;;;;;18.83;nan;101409.00;4975181;28;20009;-93
2023/10/13 03:02:29;;;;;;;;;;;;;;;18.86;nan;101410.38;4973278;28;20455;-92
2023/10/13 03:05:13;;;;;;;;;;;;;;;18.88;nan;101408.97;4975815;28;20378;-91
2023/10/13 03:07:42;;;;;;;;;;;;;;;18.89;nan;101405.16;4974636;28;20019;-92
2023/10/13 03:10:10;;;;;;;;;;;;;;;18.91;nan;101394.81;4976660;28;20000;-92
2023/10/13 03:12:36;;;;;;;;;;;;;;;18.93;nan;101380.94;4973849;28;19932;-93
2023/10/13 03:17:37;;;;;;;;;;;;;;;18.92;nan;101374.72;4981500;28;19940;-91
2023/10/13 03:20:05;;;;;;;;;;;;;;;18.93;nan;101368.19;4977016;28;19921;-93
2023/10/13 03:22:30;;;;;;;;;;;;;;;18.96;nan;101375.75;4974223;28;19922;-94
2023/10/13 03:24:59;;;;;;;;;;;;;;;18.98;nan;101367.31;4977367;28;20391;-92
2023/10/13 03:27:38;;;;;;;;;;;;;;;19.04;nan;101357.22;4973890;28;19933;-92
2023/10/13 03:30:10;;;;;;;;;;;;;;;19.06;nan;101352.31;4974170;28;20129;-93
2023/10/13 03:32:38;;;;;;;;;;;;;;;19.07;nan;101346.56;4979761;28;19922;-93
2023/10/13 03:35:13;;;;;;;;;;;;;;;19.10;nan;101335.13;4977389;28;19926;-92
2023/10/13 03:37:38;;;;;;;;;;;;;;;19.13;nan;101336.44;4974694;28;20014;-92
2023/10/13 03:43:04;;;;;;;;;;;;;;;19.15;nan;101337.78;4976513;28;19960;-92
2023/10/13 03:45:37;;;;;;;;;;;;;;;19.19;nan;101335.28;4977892;28;19929;-95
2023/10/13 03:48:08;;;;;;;;;;;;;;;19.20;nan;101326.03;4976745;28;19929;-92
2023/10/13 03:50:36;;;;;;;;;;;;;;;19.19;nan;101321.69;4975468;28;19957;-93
2023/10/13 03:53:01;;;;;;;;;;;;;;;19.17;nan;101311.13;4974009;28;19929;-94
2023/10/13 03:55:28;;;;;;;;;;;;;;;19.17;nan;101302.97;4975656;28;19921;-93
2023/10/13 03:57:54;;;;;;;;;;;;;;;19.18;nan;101301.88;4974022;28;19929;-93
2023/10/13 04:00:30;;;;;;;;;;;;;;;19.20;nan;101298.84;4974609;28;20213;-93
2023/10/13 04:16:36;;;;;;;;;;;;;;;19.31;nan;101284.03;4980675;28;19933;-92
2023/10/13 04:32:14;;;;;;;;;;;;;;;19.29;nan;101278.09;4974350;28;19925;-92
2023/10/13 04:34:45;;;;;;;;;;;;;;;19.28;nan;101262.91;4974623;28;19932;-93
2023/10/13 04:39:59;;;;;;;;;;;;;;;19.32;nan;101261.22;4986447;28;19926;-94
2023/10/13 04:48:13;;;;;;;;;;;;;;;19.45;nan;101255.03;4972013;28;19960;-92
2023/10/13 04:50:44;;;;;;;;;;;;;;;19.50;nan;101252.25;4973464;28;19965;-93
2023/10/13 04:53:27;;;;;;;;;;;;;;;19.51;nan;101234.81;4978336;28;19988;-95
2023/10/13 05:45:08;;;;;;;;;;;;;;;19.71;nan;101208.44;4970225;28;19980;-92
2023/10/13 06:28:49;;;;;;;;;;;;;;;20.03;nan;101185.84;4973896;28;19929;-95
2023/10/13 06:31:12;;;;;;;;;;;;;;;20.09;nan;101193.59;4977642;28;20303;-95
2023/10/13 06:33:45;;;;;;;;;;;;;;;20.10;nan;101195.22;4975888;28;19973;-95
2023/10/13 06:36:10;;;;;;;;;;;;;;;20.04;nan;101192.91;4973701;28;20045;-95
2023/10/13 06:38:36;;;;;;;;;;;;;;;20.00;nan;101192.69;4979623;28;20041;-95
2023/10/13 06:41:05;;;;;;;;;;;;;;;20.00;nan;101189.97;4979893;28;19928;-96
2023/10/13 06:43:32;;;;;;;;;;;;;;;20.03;nan;101185.84;4975844;28;19930;-96
2023/10/13 06:46:00;;;;;;;;;;;;;;;20.12;nan;101178.63;4975292;28;19922;-96
2023/10/13 06:48:26;;;;;;;;;;;;;;;20.14;nan;101174.50;4974496;28;19944;-95
2023/10/13 06:50:55;;;;;;;;;;;;;;;20.14;nan;101171.78;4978062;28;19922;-95
2023/10/13 06:53:21;;;;;;;;;;;;;;;20.07;nan;101181.41;4974061;28;20400;-96
2023/10/13 06:55:47;;;;;;;;;;;;;;;20.05;nan;101178.19;4981909;28;19925;-95
2023/10/13 06:58:14;;;;;;;;;;;;;;;20.01;nan;101167.13;4982093;28;20012;-95
2023/10/13 07:00:52;;;;;;;;;;;;;;;20.02;nan;101166.00;4978003;28;19921;-94
2023/10/13 07:03:18;;;;;;;;;;;;;;;20.01;nan;101167.13;4977881;28;20048;-96
2023/10/13 07:05:44;;;;;;;;;;;;;;;20.08;nan;101172.94;4975901;28;19982;-95
2023/10/13 07:08:14;;;;;;;;;;;;;;;20.12;nan;101165.03;4977421;28;19925;-95
2023/10/13 07:10:51;;;;;;;;;;;;;;;20.20;nan;101156.94;4976516;28;19926;-95
2023/10/13 07:13:19;;;;;;;;;;;;;;;20.27;nan;101148.38;4975480;28;19932;-95
2023/10/13 07:15:44;;;;;;;;;;;;;;;20.34;nan;101156.16;4971802;28;19937;-95
2023/10/13 07:18:14;;;;;;;;;;;;;;;20.38;nan;101146.25;4980368;28;19980;-95
2023/10/13 07:20:46;;;;;;;;;;;;;;;20.37;nan;101145.44;4973518;28;19925;-95
2023/10/13 07:23:17;;;;;;;;;;;;;;;20.38;nan;101148.97;4981016;28;20009;-95
2023/10/13 07:25:51;;;;;;;;;;;;;;;20.35;nan;101144.16;4976216;28;20069;-94
2023/10/13 07:28:16;;;;;;;;;;;;;;;20.36;nan;101140.31;4975877;28;19972;-94
2023/10/13 07:33:21;;;;;;;;;;;;;;;20.33;nan;101119.16;4981216;28;19972;-95
2023/10/13 07:35:51;;;;;;;;;;;;;;;20.42;nan;101109.97;4983245;28;19922;-95
2023/10/13 07:38:18;;;;;;;;;;;;;;;20.56;nan;101109.16;4979674;28;19972;-95
2023/10/13 07:40:50;;;;;;;;;;;;;;;20.63;nan;101110.34;4982285;28;19952;-96
2023/10/13 07:43:21;;;;;;;;;;;;;;;20.70;nan;101113.47;4985179;28;19947;-95
2023/10/13 07:45:50;;;;;;;;;;;;;;;20.71;nan;101104.19;4981385;28;20385;-94
2023/10/13 07:48:23;;;;;;;;;;;;;;;20.77;nan;101105.66;4983928;28;20025;-94
2023/10/13 07:51:11;;;;;;;;;;;;;;;20.83;nan;101097.41;4986506;28;19926;-96
2023/10/13 07:53:40;;;;;;;;;;;;;;;20.91;nan;101096.66;4981030;28;19930;-94
2023/10/13 07:56:11;;;;;;;;;;;;;;;20.95;nan;101103.09;4982105;28;19949;-95
2023/10/13 07:59:22;;;;;;;;;;;;;;;21.01;nan;101091.78;4981669;28;19922;-95
2023/10/13 08:01:22;;;;;;;;;;;;;;;21.15;nan;101093.59;4986004;28;19952;-95
2023/10/13 08:04:04;;;;;;;;;;;;;;;21.29;nan;101092.47;4978338;28;19922;-94
2023/10/13 08:06:30;;;;;;;;;;;;;;;21.38;nan;101095.25;4979827;28;19918;-94
2023/10/13 08:09:07;;;;;;;;;;;;;;;21.49;nan;101090.31;4978148;28;20321;-94
2023/10/13 08:11:34;;;;;;;;;;;;;;;21.55;nan;101092.63;4980725;28;19933;-94
2023/10/13 08:14:10;;;;;;;;;;;;;;;21.71;nan;101082.06;4982117;28;20449;-95
2023/10/13 08:16:52;;;;;;;;;;;;;;;21.82;nan;101082.63;4977210;28;20039;-95
2023/10/13 08:19:18;;;;;;;;;;;;;;;21.85;nan;101074.59;4979310;28;19930;-94
2023/10/13 08:21:57;;;;;;;;;;;;;;;21.91;nan;101086.19;4977239;28;19925;-95
2023/10/13 08:24:56;;;;;;;;;;;;;;;21.91;nan;101078.81;4981275;28;19957;-95
2023/10/13 08:46:09;;;;;;;;;;;;;;;22.27;nan;101043.13;4975045;28;19926;-95
2023/10/13 08:50:52;;;;;;;;;;;;;;;22.60;nan;101048.91;4978694;28;19933;-94
2023/10/13 08:53:44;;;;;;;;;;;;;;;22.69;nan;101045.38;4984036;28;19926;-96
2023/10/13 09:04:19;;;;;;;;;;;;;;;22.85;nan;101036.41;4978448;28;19948;-95
2023/10/13 09:07:08;;;;;;;;;;;;;;;22.91;nan;101034.28;4982187;28;20382;-94
2023/10/13 09:12:13;;;;;;;;;;;;;;;23.08;nan;101026.06;4982434;28;19972;-94
2023/10/13 09:14:45;;;;;;;;;;;;;;;23.14;nan;101024.75;4979543;28;19928;-93
2023/10/13 09:19:55;;;;;;;;;;;;;;;23.25;nan;101032.63;4974644;28;19981;-95
2023/10/13 09:22:28;;;;;;;;;;;;;;;23.23;nan;101022.00;4976789;28;20038;-95
2023/10/13 09:24:58;;;;;;;;;;;;;;;23.31;nan;101028.56;4976880;28;20445;-91
2023/10/13 09:27:26;;;;;;;;;;;;;;;23.32;nan;101019.22;4982475;28;19933;-93
2023/10/13 09:30:18;;;;;;;;;;;;;;;23.37;nan;101011.66;4977867;28;20553;-95
2023/10/13 09:32:48;;;;;;;;;;;;;;;23.38;nan;101010.53;4980019;28;19957;-94
2023/10/13 09:35:26;;;;;;;;;;;;;;;23.39;nan;100998.47;4988730;28;19926;-93
2023/10/13 09:37:56;;;;;;;;;;;;;;;23.40;nan;100994.59;4968347;28;20569;-94
2023/10/13 09:40:25;;;;;;;;;;;;;;;23.42;nan;100989.59;4976760;28;19976;-92
2023/10/13 09:42:56;;;;;;;;;;;;;;;23.48;nan;100985.53;4977397;28;19933;-91
2023/10/13 09:45:27;;;;;;;;;;;;;;;23.59;nan;100985.22;4970164;28;20017;-93
2023/10/13 09:47:57;;;;;;;;;;;;;;;23.69;nan;100982.09;4970948;28;19933;-93
2023/10/13 09:50:25;;;;;;;;;;;;;;;23.77;nan;100986.72;4972718;28;19930;-93
2023/10/13 09:52:52;;;;;;;;;;;;;;;23.79;nan;100965.31;4972786;28;19921;-94
2023/10/13 09:55:44;;;;;;;;;;;;;;;23.87;nan;100963.63;4976489;28;19922;-92
2023/10/13 09:58:12;;;;;;;;;;;;;;;23.92;nan;100950.56;4965740;28;20001;-94
2023/10/13 10:01:20;;;;;;;;;;;;;;;24.01;nan;100964.97;4973178;28;20413;-95
2023/10/13 10:04:35;;;;;;;;;;;;;;;24.04;nan;100952.56;4976698;28;19926;-95
2023/10/13 10:06:38;;;;;;;;;;;;;;;24.10;nan;100937.56;4986057;28;19917;-95
2023/10/13 10:09:13;;;;;;;;;;;;;;;24.13;nan;100933.34;4972739;28;19952;-94
2023/10/13 10:11:51;;;;;;;;;;;;;;;24.13;nan;100927.88;4979555;28;19929;-94
2023/10/13 10:14:19;;;;;;;;;;;;;;;24.12;nan;100929.81;4977449;28;20425;-96
2023/10/13 10:16:46;;;;;;;;;;;;;;;24.16;nan;100929.94;4980282;28;19944;-95
2023/10/13 10:19:11;;;;;;;;;;;;;;;24.23;nan;100917.31;4976378;28;19922;-95
2023/10/13 10:21:37;;;;;;;;;;;;;;;24.27;nan;100912.78;4973082;28;19918;-95
2023/10/13 10:24:13;;;;;;;;;;;;;;;24.37;nan;100911.56;4977654;28;19926;-95
2023/10/13 10:26:49;;;;;;;;;;;;;;;24.44;nan;100905.56;4973352;28;20008;-95
2023/10/13 10:29:14;;;;;;;;;;;;;;;24.49;nan;100897.13;4972681;28;19993;-96
2023/10/13 10:31:44;;;;;;;;;;;;;;;24.50;nan;100883.09;4973527;28;20704;-93
2023/10/13 10:34:19;;;;;;;;;;;;;;;24.58;nan;100884.94;4973371;28;19928;-94
2023/10/13 10:36:46;;;;;;;;;;;;;;;24.61;nan;100884.28;4972474;28;19929;-93
2023/10/13 10:39:12;;;;;;;;;;;;;;;24.61;nan;100878.78;4973019;28;19922;-93
2023/10/13 10:44:55;;;;;;;;;;;;;;;24.64;nan;100872.63;4970464;28;19995;-96
2023/10/13 10:47:19;;;;;;;;;;;;;;;24.64;nan;100867.16;4980095;28;19984;-94
2023/10/13 10:49:44;;;;;;;;;;;;;;;24.65;nan;100865.22;4969201;28;19929;-93
2023/10/13 10:52:18;;;;;;;;;;;;;;;24.62;nan;100852.19;4971574;28;19926;-91
2023/10/13 10:54:44;;;;;;;;;;;;;;;24.60;nan;100852.53;4974591;28;19918;-93
2023/10/13 10:57:17;;;;;;;;;;;;;;;24.64;nan;100849.91;4973520;28;20370;-92
2023/10/13 10:59:42;;;;;;;;;;;;;;;24.67;nan;100847.28;4971509;28;20398;-92
2023/10/13 11:02:08;;;;;;;;;;;;;;;24.68;nan;100845.34;4970740;28;19953;-93
2023/10/13 11:04:35;;;;;;;;;;;;;;;24.64;nan;100834.28;4975172;28;20410;-94
2023/10/13 11:07:00;;;;;;;;;;;;;;;24.64;nan;100830.75;4976550;28;19977;-93
2023/10/13 11:11:52;;;;;;;;;;;;;;;24.64;nan;100823.31;4968905;28;19933;-92
2023/10/13 11:14:24;;;;;;;;;;;;;;;24.59;nan;100826.25;4971691;28;19937;-89
2023/10/13 11:16:50;;;;;;;;;;;;;;;24.59;nan;100826.25;4973319;28;20378;-94
2023/10/13 11:19:16;;;;;;;;;;;;;;;24.58;nan;100824.66;4975922;28;19929;-93
2023/10/13 11:21:42;;;;;;;;;;;;;;;24.57;nan;100823.06;4974882;28;19922;-94
2023/10/13 11:24:11;;;;;;;;;;;;;;;24.55;nan;100827.28;4980279;28;20421;-93
2023/10/13 11:26:57;;;;;;;;;;;;;;;24.48;nan;100816.91;4986589;28;20045;-94
2023/10/13 11:29:33;;;;;;;;;;;;;;;24.38;nan;100814.59;4977127;28;20327;-92
2023/10/13 11:31:59;;;;;;;;;;;;;;;24.34;nan;100817.22;4982116;28;19972;-92
2023/10/13 11:34:25;;;;;;;;;;;;;;;24.31;nan;100809.69;4979957;28;20332;-95
2023/10/13 11:36:50;;;;;;;;;;;;;;;24.29;nan;100811.97;4985406;28;19925;-93
2023/10/13 11:39:23;;;;;;;;;;;;;;;24.26;nan;100812.63;4986010;28;19987;-92
2023/10/13 11:41:55;;;;;;;;;;;;;;;24.25;nan;100799.25;4983637;28;19929;-93
2023/10/13 11:44:24;;;;;;;;;;;;;;;24.26;nan;100803.59;4985850;28;19929;-96
2023/10/13 11:46:56;;;;;;;;;;;;;;;24.17;nan;100790.00;4985229;28;19914;-95
2023/10/13 11:52:15;;;;;;;;;;;;;;;24.10;nan;100787.00;4985597;28;20100;-95
2023/10/13 11:54:46;;;;;;;;;;;;;;;24.07;nan;100787.69;4991783;28;20379;-95
2023/10/13 11:57:12;;;;;;;;;;;;;;;24.04;nan;100752.78;4990593;28;19913;-93
2023/10/13 11:59:44;;;;;;;;;;;;;;;24.03;nan;100741.03;4984800;28;19929;-93
2023/10/13 12:04:54;;;;;;;;;;;;;;;24.04;nan;100748.09;4980368;28;19932;-93
2023/10/13 12:07:21;;;;;;;;;;;;;;;24.11;nan;100751.09;4978605;28;19925;-95
2023/10/13 12:12:23;;;;;;;;;;;;;;;24.15;nan;100728.50;4979599;28;20401;-96
2023/10/13 12:14:58;;;;;;;;;;;;;;;24.18;nan;100739.56;4986670;28;19918;-95
2023/10/13 12:17:39;;;;;;;;;;;;;;;24.14;nan;100737.88;4981634;28;19918;-96
2023/10/13 12:20:09;;;;;;;;;;;;;;;24.18;nan;100741.50;4984831;28;19926;-94
2023/10/13 12:22:42;;;;;;;;;;;;;;;24.29;nan;100732.56;4982664;28;19929;-95
2023/10/13 12:28:23;;;;;;;;;;;;;;;24.36;nan;100729.25;4999460;28;20405;-95
2023/10/13 12:30:52;;;;;;;;;;;;;;;24.39;nan;100739.50;4980020;28;19926;-94
2023/10/13 12:33:24;;;;;;;;;;;;;;;24.36;nan;100730.03;4980949;28;20078;-95
2023/10/13 12:36:03;;;;;;;;;;;;;;;24.42;nan;100733.38;4982512;28;19918;-92
2023/10/13 12:52:53;;;;;;;;;;;;;;;24.72;nan;100692.84;4976792;28;19929;-94
2023/10/13 12:55:06;;;;;;;;;;;;;;;24.78;nan;100691.47;4983040;28;20012;-94
2023/10/13 12:57:32;;;;;;;;;;;;;;;24.85;nan;100688.94;4976337;28;19925;-92
2023/10/13 12:59:57;;;;;;;;;;;;;;;24.96;nan;100679.09;4982980;28;19926;-92
2023/10/13 13:02:26;;;;;;;;;;;;;;;25.02;nan;100679.69;4979068;28;19918;-94
2023/10/13 13:04:56;;;;;;;;;;;;;;;25.05;nan;100673.50;4982889;28;19984;-94
2023/10/13 13:07:22;;;;;;;;;;;;;;;25.05;nan;100670.75;4976628;28;20592;-92
2023/10/13 13:09:48;;;;;;;;;;;;;;;25.15;nan;100677.72;4980855;28;20009;-95
2023/10/13 13:12:13;;;;;;;;;;;;;;;25.15;nan;100672.22;4978727;28;19950;-95
2023/10/13 13:14:41;;;;;;;;;;;;;;;25.09;nan;100663.44;4980823;28;19914;-95
2023/10/13 13:17:06;;;;;;;;;;;;;;;25.13;nan;100658.03;4981893;28;20374;-96
2023/10/13 13:19:41;;;;;;;;;;;;;;;25.17;nan;100645.25;4986115;28;20008;-95
2023/10/13 13:22:11;;;;;;;;;;;;;;;25.18;nan;100641.38;4980449;28;20448;-94
2023/10/13 13:24:47;;;;;;;;;;;;;;;25.17;nan;100632.34;4978011;28;19972;-95
2023/10/13 13:27:13;;;;;;;;;;;;;;;25.20;nan;100626.16;4982886;28;19937;-95
2023/10/13 13:29:43;;;;;;;;;;;;;;;25.24;nan;100626.25;4981588;28;19922;-93
2023/10/13 13:35:04;;;;;;;;;;;;;;;25.28;nan;100603.25;4986143;28;19933;-91
2023/10/13 13:37:30;;;;;;;;;;;;;;;25.37;nan;100602.31;4981403;28;19918;-95
2023/10/13 13:39:56;;;;;;;;;;;;;;;25.41;nan;100595.78;4986160;28;20484;-91
2023/10/13 13:42:21;;;;;;;;;;;;;;;25.49;nan;100591.25;4978667;28;19924;-91
2023/10/13 13:44:47;;;;;;;;;;;;;;;25.56;nan;100584.03;4976432;28;20461;-91
2023/10/13 13:47:13;;;;;;;;;;;;;;;25.59;nan;100585.25;4978292;28;20341;-92
2023/10/13 13:49:46;;;;;;;;;;;;;;;25.64;nan;100589.69;4977182;28;20509;-91
2023/10/13 13:52:17;;;;;;;;;;;;;;;25.78;nan;100579.09;4978873;28;19928;-93
2023/10/13 13:54:43;;;;;;;;;;;;;;;25.81;nan;100567.41;4979286;28;20028;-94
2023/10/13 13:57:08;;;;;;;;;;;;;;;25.80;nan;100563.06;4982019;28;20441;-90
2023/10/13 13:59:33;;;;;;;;;;;;;;;25.84;nan;100555.72;4977066;28;19922;-93
2023/10/13 14:02:05;;;;;;;;;;;;;;;25.81;nan;100556.44;4982407;28;19918;-92
2023/10/13 14:04:31;;;;;;;;;;;;;;;25.78;nan;100563.44;4981646;28;19922;-93
2023/10/13 14:06:56;;;;;;;;;;;;;;;25.76;nan;100567.69;4979703;28;19926;-93
2023/10/13 14:09:40;;;;;;;;;;;;;;;25.66;nan;100557.19;4977227;28;20650;-93
2023/10/13 14:14:56;;;;;;;;;;;;;;;25.68;nan;100552.22;4974750;28;19949;-93
2023/10/13 14:17:35;;;;;;;;;;;;;;;25.61;nan;100542.59;4977111;28;19929;-90
2023/10/13 14:20:05;;;;;;;;;;;;;;;25.66;nan;100538.78;4977504;28;19926;-94
2023/10/13 14:22:36;;;;;;;;;;;;;;;25.64;nan;100537.56;4979847;28;19932;-91
2023/10/13 14:25:08;;;;;;;;;;;;;;;25.68;nan;100530.25;4980220;28;20370;-93
2023/10/13 14:27:35;;;;;;;;;;;;;;;25.74;nan;100529.63;4978749;28;19919;-95
2023/10/13 14:30:01;;;;;;;;;;;;;;;25.77;nan;100539.09;4979838;28;19921;-94
2023/10/13 14:32:27;;;;;;;;;;;;;;;25.77;nan;100517.13;4983443;28;19976;-93
2023/10/13 14:35:00;;;;;;;;;;;;;;;25.80;nan;100530.13;4980261;28;19928;-92
2023/10/13 14:37:31;;;;;;;;;;;;;;;25.80;nan;100525.44;4977595;28;19918;-95
2023/10/13 14:39:57;;;;;;;;;;;;;;;25.85;nan;100508.72;4978624;28;19926;-91
2023/10/13 14:42:26;;;;;;;;;;;;;;;25.84;nan;100503.56;4974153;28;19929;-92
2023/10/13 14:44:58;;;;;;;;;;;;;;;25.92;nan;100497.09;4976585;28;19918;-94
2023/10/13 14:47:24;;;;;;;;;;;;;;;25.87;nan;100489.94;4978955;28;19929;-89
2023/10/13 14:49:54;;;;;;;;;;;;;;;25.84;nan;100493.38;4980558;28;19956;-91
2023/10/13 14:52:19;;;;;;;;;;;;;;;25.81;nan;100499.59;4978931;28;19947;-95
2023/10/13 14:54:45;;;;;;;;;;;;;;;25.80;nan;100505.44;4983206;28;20002;-93
2023/10/13 14:57:10;;;;;;;;;;;;;;;25.86;nan;100493.84;4981530;28;20668;-93
2023/10/13 14:59:38;;;;;;;;;;;;;;;25.89;nan;100479.41;4985965;28;20389;-91
2023/10/13 15:02:04;;;;;;;;;;;;;;;25.97;nan;100485.84;4979980;28;20070;-93
2023/10/13 15:04:32;;;;;;;;;;;;;;;26.02;nan;100480.06;4982498;28;20377;-95
2023/10/13 15:06:58;;;;;;;;;;;;;;;26.07;nan;100484.50;4987188;28;19918;-93
2023/10/13 15:09:23;;;;;;;;;;;;;;;26.09;nan;100506.91;4980792;28;19917;-93
2023/10/13 15:11:54;;;;;;;;;;;;;;;26.11;nan;100494.41;4985725;28;19930;-94
2023/10/13 15:14:22;;;;;;;;;;;;;;;26.19;nan;100482.41;4986215;28;19925;-93
2023/10/13 15:16:48;;;;;;;;;;;;;;;26.18;nan;100488.25;4980361;28;19922;-89
2023/10/13 15:19:16;;;;;;;;;;;;;;;26.19;nan;100496.13;4978646;28;20401;-91
2023/10/13 15:21:42;;;;;;;;;;;;;;;26.24;nan;100486.03;4978245;28;19921;-90
2023/10/13 15:24:13;;;;;;;;;;;;;;;26.27;nan;100488.06;4976325;28;19921;-92
2023/10/13 15:26:41;;;;;;;;;;;;;;;26.25;nan;100476.66;4983062;28;20009;-93
2023/10/13 15:29:12;;;;;;;;;;;;;;;26.22;nan;100469.13;4983423;28;19925;-94
2023/10/13 15:31:37;;;;;;;;;;;;;;;26.23;nan;100476.22;4986970;28;19925;-93
2023/10/13 15:34:06;;;;;;;;;;;;;;;26.20;nan;100463.97;4977519;28;19918;-92
2023/10/13 15:36:32;;;;;;;;;;;;;;;26.17;nan;100454.50;4976780;28;20220;-92
2023/10/13 15:38:57;;;;;;;;;;;;;;;26.23;nan;100457.00;4980124;28;19928;-92
2023/10/13 15:41:23;;;;;;;;;;;;;;;26.24;nan;100453.09;4977951;28;20398;-94
2023/10/13 15:43:52;;;;;;;;;;;;;;;26.23;nan;100446.81;4978014;28;19973;-94
2023/10/13 15:46:18;;;;;;;;;;;;;;;26.22;nan;100444.41;4974671;28;19926;-92
2023/10/13 15:48:46;;;;;;;;;;;;;;;26.22;nan;100442.47;4972763;28;20408;-89
2023/10/13 15:51:14;;;;;;;;;;;;;;;26.24;nan;100450.34;4972739;28;19926;-93
2023/10/13 15:53:40;;;;;;;;;;;;;;;26.27;nan;100441.38;4977184;28;19928;-93
2023/10/13 15:56:12;;;;;;;;;;;;;;;26.23;nan;100430.31;4976948;28;19918;-93
2023/10/13 15:58:38;;;;;;;;;;;;;;;26.27;nan;100435.88;4979777;28;19969;-93
2023/10/13 16:01:12;;;;;;;;;;;;;;;26.22;nan;100427.94;4978702;28;19925;-91
2023/10/13 16:03:38;;;;;;;;;;;;;;;26.21;nan;100438.09;4975096;28;20052;-94
2023/10/13 16:06:10;;;;;;;;;;;;;;;26.24;nan;100436.63;4977377;28;20689;-89
2023/10/13 16:08:43;;;;;;;;;;;;;;;26.23;nan;100426.78;4974397;28;21059;-91
2023/10/13 16:11:19;;;;;;;;;;;;;;;26.19;nan;100437.66;4971288;28;20374;-91
2023/10/13 16:13:45;;;;;;;;;;;;;;;26.23;nan;100429.53;4980082;28;19961;-95
2023/10/13 16:16:17;;;;;;;;;;;;;;;26.20;nan;100415.34;4983085;28;19968;-94
2023/10/13 16:18:44;;;;;;;;;;;;;;;26.12;nan;100413.63;4974357;28;19969;-91
2023/10/13 16:21:12;;;;;;;;;;;;;;;26.18;nan;100403.13;4971441;28;20363;-92
2023/10/13 16:23:38;;;;;;;;;;;;;;;26.19;nan;100396.47;4972805;28;20123;-92
2023/10/13 16:26:07;;;;;;;;;;;;;;;26.20;nan;100396.13;4972923;28;20419;-90
2023/10/13 16:28:34;;;;;;;;;;;;;;;26.27;nan;100397.44;4974199;28;20421;-94
2023/10/13 16:30:59;;;;;;;;;;;;;;;26.27;nan;100391.94;4975138;28;19925;-91
2023/10/13 16:33:25;;;;;;;;;;;;;;;26.28;nan;100388.03;4980307;28;19937;-90
2023/10/13 16:35:53;;;;;;;;;;;;;;;26.26;nan;100382.91;4979964;28;19917;-90
2023/10/13 16:38:19;;;;;;;;;;;;;;;26.28;nan;100374.31;4978941;28;19918;-91
2023/10/13 16:40:44;;;;;;;;;;;;;;;26.26;nan;100382.91;4978463;28;19918;-91